Fakenham, United Kingdom
Current Conditions -  °F | °C
As of 3:50 AM on Tuesday 21 Oct 2014 (Local Time) from EGYM Reporting Station
Rain Showers Rain Showers  
Wind Chill: 54°   Ceiling: 9000
Heat Index: 54°   Visibility: 6mi
Dew Point: 50°   Wind: 20mph
Humidity: 88%   Direction: 200°SSW
Pressure: 29.62"   Gusts: NA
Location:  52.83°N, 0.85°E
Report Text: EGYM 210250Z AUTO 20017KT 9999 -SHRA FEW017/// SCT039/// BKN090/// 12/10 Q1003
Loading
Personal Weather Stations






























Interactive Weather Map
Tropical Storm Tracking
New forecast layout! Learn more

10-Day Weather Forecast

Advertisements
Track Severe Weather on mobile